Hlavní strana
METAR-TAF:

METAR-TAF

Letiště :

Clemson, Jižní Karolína, Spojené státy americké

zeměpisná šířka: 34-40-20N, zeměpisná délka: 082-52-53W, výška: 272 m

Aktuální stav počasí

Zpráva byla vytvořena před 16 minutami, v 10:54 UTC
Bezvětří
Teplota 21°C
Vlhkost vzduchu 100%
Tlak 1022 hPa
Viditelnost: 4.8 km
Jasno
kouřmo

METAR: KCEU 241054Z AUTO 00000KT 3SM BR CLR 21/21 A3017 RMK AO2 SLP206 T02110211

Čas: 07:10 (11:10 UTC)


TAF: chybějící

Stav a předpovědi počasí z více než 4 000 letišť (zprávy METAR a TAF).

Červené a žluté tečky na mapě představují dostupné meteorologické stanice.

Když kurzor umístíte na tečku, zobrazí se název stanice.

Pak kliknutím zobrazíte stav a předpověď počasí.

Chcete-li změnit mapu, kliknutím na zelené tlačítko se znaménkem +mapu přiblížíte, kliknutím na zelené tlačítko se znaménkem – mapu oddálíte a kliknutím na zelené šipky přejdete na sousední mapy.


METAR-TAF: